createdAt,value
2022-12-09T00:00:22.597Z,100838.28
2022-12-09T00:02:54.630Z,100843.44
2022-12-09T00:05:27.043Z,100847.69
2022-12-09T00:07:59.337Z,100846.09
2022-12-09T00:10:31.573Z,100843.00
2022-12-09T00:13:03.547Z,100843.19
2022-12-09T00:15:35.593Z,100834.81
2022-12-09T00:18:07.575Z,100840.03
2022-12-09T00:20:39.579Z,100832.34
2022-12-09T00:23:11.840Z,100833.78
2022-12-09T00:25:43.778Z,100834.56
2022-12-09T00:28:15.865Z,100836.97
2022-12-09T00:30:47.913Z,100834.22
2022-12-09T00:33:20.139Z,100834.94
2022-12-09T00:35:52.172Z,100834.84
2022-12-09T00:38:24.405Z,100842.56
2022-12-09T00:40:56.342Z,100838.19
2022-12-09T00:43:28.840Z,100839.09
2022-12-09T00:46:02.159Z,100842.63
2022-12-09T00:48:35.009Z,100840.97
2022-12-09T00:51:09.353Z,100839.22
2022-12-09T00:53:41.697Z,100838.34
2022-12-09T00:56:14.732Z,100835.75
2022-12-09T00:58:46.754Z,100838.44
2022-12-09T01:01:18.918Z,100837.66
2022-12-09T01:03:51.217Z,100834.25
2022-12-09T01:06:26.167Z,100842.13
2022-12-09T01:08:58.188Z,100837.91
2022-12-09T01:11:30.685Z,100841.47
2022-12-09T01:14:03.655Z,100844.09
2022-12-09T01:16:36.665Z,100853.63
2022-12-09T01:19:13.261Z,100849.00
2022-12-09T01:21:45.360Z,100855.00
2022-12-09T01:24:17.383Z,100854.19
2022-12-09T01:26:49.709Z,100843.03
2022-12-09T01:29:21.795Z,100835.13
2022-12-09T01:31:55.543Z,100841.84
2022-12-09T01:34:27.613Z,100845.97
2022-12-09T01:36:59.842Z,100840.69
2022-12-09T01:39:32.073Z,100835.28
2022-12-09T01:42:05.326Z,100836.78
2022-12-09T01:44:37.548Z,100839.25
2022-12-09T01:47:23.156Z,100835.63
2022-12-09T01:49:55.200Z,100836.28
2022-12-09T01:52:27.453Z,100841.38
2022-12-09T01:54:59.413Z,100841.25
2022-12-09T01:57:31.794Z,100847.06
2022-12-09T02:00:05.128Z,100846.09
2022-12-09T02:02:38.868Z,100851.13
2022-12-09T02:05:12.012Z,100853.53
2022-12-09T02:07:44.437Z,100840.50
2022-12-09T02:10:18.662Z,100838.66
2022-12-09T02:13:11.756Z,100835.94
2022-12-09T02:16:14.286Z,100831.56
2022-12-09T02:19:00.686Z,100830.63
2022-12-09T02:21:38.882Z,100839.22
2022-12-09T02:24:23.636Z,100839.91
2022-12-09T02:27:18.723Z,100830.53
2022-12-09T02:30:05.965Z,100823.53
2022-12-09T02:33:06.637Z,100825.81
2022-12-09T02:35:57.409Z,100819.34
2022-12-09T02:38:32.941Z,100815.56
2022-12-09T02:41:22.509Z,100819.72
2022-12-09T02:44:01.207Z,100810.34
2022-12-09T02:46:36.298Z,100825.06
2022-12-09T02:49:08.798Z,100815.56
2022-12-09T02:51:42.659Z,100807.19
2022-12-09T02:54:19.556Z,100812.25
2022-12-09T02:57:00.886Z,100807.19
2022-12-09T02:59:32.829Z,100812.47
2022-12-09T03:02:30.366Z,100809.25
2022-12-09T03:05:27.334Z,100812.84
2022-12-09T03:08:23.008Z,100805.16
2022-12-09T03:11:11.266Z,100805.94
2022-12-09T03:14:13.198Z,100805.16
2022-12-09T03:17:20.652Z,100812.19
2022-12-09T03:20:02.064Z,100802.78
2022-12-09T03:22:36.274Z,100804.63
2022-12-09T03:25:18.305Z,100807.25
2022-12-09T03:28:01.412Z,100811.34
2022-12-09T03:30:38.507Z,100807.72
2022-12-09T03:33:13.558Z,100801.81
2022-12-09T03:35:53.153Z,100807.16
2022-12-09T03:38:32.076Z,100795.94
2022-12-09T03:41:24.953Z,100795.19
2022-12-09T03:44:10.847Z,100801.25
2022-12-09T03:46:43.477Z,100790.03
2022-12-09T03:49:16.049Z,100799.59
2022-12-09T03:52:28.154Z,100790.97
2022-12-09T03:55:08.299Z,100801.56
2022-12-09T03:57:44.175Z,100791.28
2022-12-09T04:00:18.277Z,100791.81
2022-12-09T04:02:50.805Z,100790.25
2022-12-09T04:05:23.241Z,100791.25
2022-12-09T04:07:55.364Z,100788.69
2022-12-09T04:10:27.690Z,100778.44
2022-12-09T04:13:00.209Z,100785.91
2022-12-09T04:15:32.216Z,100782.59
2022-12-09T04:18:04.357Z,100786.16
2022-12-09T04:20:36.952Z,100790.41
2022-12-09T04:23:08.936Z,100785.28
2022-12-09T04:25:40.976Z,100792.34
2022-12-09T04:28:13.242Z,100781.09
2022-12-09T04:30:46.815Z,100789.78
2022-12-09T04:33:18.804Z,100776.81
2022-12-09T04:35:50.976Z,100769.06
2022-12-09T04:38:22.966Z,100774.97
2022-12-09T04:40:54.905Z,100774.09
2022-12-09T04:43:27.093Z,100773.38
2022-12-09T04:46:13.798Z,100765.66
2022-12-09T04:48:47.055Z,100769.16
2022-12-09T04:51:19.055Z,100766.47
2022-12-09T04:53:51.300Z,100770.56
2022-12-09T04:56:23.659Z,100773.03
2022-12-09T04:58:55.932Z,100766.06
2022-12-09T05:01:31.147Z,100766.81
2022-12-09T05:04:04.387Z,100768.41
2022-12-09T05:06:36.748Z,100765.59
2022-12-09T05:09:13.418Z,100774.00
2022-12-09T05:11:45.820Z,100777.28
2022-12-09T05:14:18.145Z,100780.53
2022-12-09T05:16:50.280Z,100781.38
2022-12-09T05:19:22.802Z,100772.00
2022-12-09T05:21:55.190Z,100783.25
2022-12-09T05:24:27.309Z,100781.38
2022-12-09T05:26:59.344Z,100777.88
2022-12-09T05:29:31.547Z,100776.84
2022-12-09T05:32:03.660Z,100777.50
2022-12-09T05:34:35.926Z,100780.84
2022-12-09T05:37:08.293Z,100786.88
2022-12-09T05:39:40.776Z,100783.34
2022-12-09T05:42:12.750Z,100770.63
2022-12-09T05:44:44.956Z,100778.53
2022-12-09T05:47:17.016Z,100771.91
2022-12-09T05:49:49.165Z,100772.81
2022-12-09T05:52:21.683Z,100771.06
2022-12-09T05:54:53.949Z,100775.09
2022-12-09T05:57:26.285Z,100779.38
2022-12-09T06:00:01.365Z,100769.66
2022-12-09T06:02:33.944Z,100765.81
2022-12-09T06:05:07.251Z,100768.06
2022-12-09T06:07:39.774Z,100768.84
2022-12-09T06:10:13.068Z,100769.53
2022-12-09T06:12:45.413Z,100764.38
2022-12-09T06:15:21.474Z,100756.59
2022-12-09T06:17:54.398Z,100762.41
2022-12-09T06:20:27.220Z,100764.09
2022-12-09T06:22:59.525Z,100759.72
2022-12-09T06:25:31.526Z,100763.13
2022-12-09T06:28:04.219Z,100760.56
2022-12-09T06:30:37.229Z,100757.19
2022-12-09T06:33:29.157Z,100757.25
2022-12-09T06:36:04.102Z,100755.34
2022-12-09T06:38:36.547Z,100760.56
2022-12-09T06:41:14.253Z,100758.91
2022-12-09T06:43:46.723Z,100768.31
2022-12-09T06:46:24.650Z,100758.66
2022-12-09T06:48:57.557Z,100761.06
2022-12-09T06:51:30.098Z,100751.44
2022-12-09T06:54:02.406Z,100758.25
2022-12-09T06:56:34.594Z,100765.03
2022-12-09T06:59:09.471Z,100775.31
2022-12-09T07:01:41.863Z,100775.38
2022-12-09T07:04:15.055Z,100771.88
2022-12-09T07:06:48.033Z,100773.63
2022-12-09T07:09:22.859Z,100779.44
2022-12-09T07:11:55.348Z,100772.66
2022-12-09T07:14:27.499Z,100774.25
2022-12-09T07:17:00.921Z,100779.44
2022-12-09T07:19:33.702Z,100784.41
2022-12-09T07:22:05.677Z,100786.97
2022-12-09T07:24:38.869Z,100781.78
2022-12-09T07:27:19.411Z,100789.97
2022-12-09T07:29:51.810Z,100785.53
2022-12-09T07:32:24.318Z,100794.25
2022-12-09T07:34:56.535Z,100785.84
2022-12-09T07:37:29.028Z,100794.69
2022-12-09T07:40:01.695Z,100792.22
2022-12-09T07:42:34.197Z,100794.16
2022-12-09T07:45:07.738Z,100807.25
2022-12-09T07:47:40.131Z,100807.25
2022-12-09T07:50:12.472Z,100804.75
2022-12-09T07:52:44.687Z,100805.03
2022-12-09T07:55:16.729Z,100815.13
2022-12-09T07:57:48.699Z,100809.06
2022-12-09T08:00:22.006Z,100816.34
2022-12-09T08:02:54.082Z,100811.00
2022-12-09T08:05:27.370Z,100815.22
2022-12-09T08:07:59.816Z,100811.72
2022-12-09T08:10:32.425Z,100803.50
2022-12-09T08:13:04.930Z,100811.72
2022-12-09T08:15:37.095Z,100814.50
2022-12-09T08:18:09.323Z,100814.50
2022-12-09T08:20:41.882Z,100812.22
2022-12-09T08:23:14.315Z,100815.72
2022-12-09T08:25:46.643Z,100820.34
2022-12-09T08:28:18.825Z,100817.31
2022-12-09T08:30:52.015Z,100815.03
2022-12-09T08:33:25.299Z,100819.25
2022-12-09T08:35:57.598Z,100812.50
2022-12-09T08:38:32.064Z,100814.44
2022-12-09T08:41:17.600Z,100810.56
2022-12-09T08:43:50.029Z,100815.84
2022-12-09T08:46:22.629Z,100826.75
2022-12-09T08:48:54.845Z,100815.75
2022-12-09T08:51:29.112Z,100825.94
2022-12-09T08:54:02.383Z,100813.22
2022-12-09T08:56:34.652Z,100817.78
2022-12-09T08:59:06.792Z,100819.66
2022-12-09T09:01:39.282Z,100812.44
2022-12-09T09:04:15.321Z,100811.22
2022-12-09T09:06:50.579Z,100815.44
2022-12-09T09:09:23.630Z,100816.44
2022-12-09T09:11:56.020Z,100808.94
2022-12-09T09:14:28.518Z,100813.59
2022-12-09T09:17:01.059Z,100817.50
2022-12-09T09:19:33.509Z,100812.81
2022-12-09T09:22:05.660Z,100812.78
2022-12-09T09:24:37.816Z,100813.88
2022-12-09T09:27:09.805Z,100812.03
2022-12-09T09:29:41.961Z,100819.19
2022-12-09T09:32:14.158Z,100820.06
2022-12-09T09:34:48.700Z,100816.78
2022-12-09T09:37:21.498Z,100812.59
2022-12-09T09:39:53.516Z,100818.75
2022-12-09T09:42:35.944Z,100816.78
2022-12-09T09:45:16.580Z,100815.09
2022-12-09T09:47:53.593Z,100822.97
2022-12-09T09:50:47.902Z,100821.97
2022-12-09T09:53:26.827Z,100824.03
2022-12-09T09:56:25.634Z,100832.19
2022-12-09T09:59:19.734Z,100817.03
2022-12-09T10:02:23.290Z,100823.00
2022-12-09T10:05:37.638Z,100815.63
2022-12-09T10:08:16.399Z,100821.88
2022-12-09T10:10:55.053Z,100813.44
2022-12-09T10:14:07.022Z,100813.25
2022-12-09T10:17:04.480Z,100810.97
2022-12-09T10:19:43.629Z,100802.09
2022-12-09T10:22:23.215Z,100803.59
2022-12-09T10:25:00.870Z,100802.22
2022-12-09T10:27:47.215Z,100798.34
2022-12-09T10:30:20.726Z,100804.13
2022-12-09T10:32:54.423Z,100796.94
2022-12-09T10:35:29.822Z,100802.09
2022-12-09T10:38:17.595Z,100794.16
2022-12-09T10:41:00.689Z,100804.78
2022-12-09T10:43:40.118Z,100798.25
2022-12-09T10:46:21.941Z,100804.28
2022-12-09T10:49:02.408Z,100803.47
2022-12-09T10:51:39.640Z,100798.47
2022-12-09T10:54:15.456Z,100801.66
2022-12-09T10:57:13.656Z,100800.97
2022-12-09T11:00:22.766Z,100805.06
2022-12-09T11:02:56.776Z,100797.75
2022-12-09T11:05:32.101Z,100797.97
2022-12-09T11:08:05.828Z,100802.63
2022-12-09T11:10:39.100Z,100800.88
2022-12-09T11:13:18.895Z,100810.78
2022-12-09T11:16:01.289Z,100797.44
2022-12-09T11:18:48.303Z,100803.56
2022-12-09T11:21:36.881Z,100803.75
2022-12-09T11:24:26.287Z,100798.69
2022-12-09T11:26:58.866Z,100802.88
2022-12-09T11:29:31.167Z,100804.28
2022-12-09T11:32:03.956Z,100800.81
2022-12-09T11:34:37.793Z,100801.47
2022-12-09T11:37:11.768Z,100798.63
2022-12-09T11:39:51.148Z,100807.16
2022-12-09T11:42:24.813Z,100793.63
2022-12-09T11:45:31.808Z,100798.59
2022-12-09T11:48:35.015Z,100789.38
2022-12-09T11:51:20.287Z,100794.53
2022-12-09T11:54:01.896Z,100797.69
2022-12-09T11:56:37.230Z,100785.63
2022-12-09T11:59:18.053Z,100791.81
2022-12-09T12:02:42.960Z,100795.47
2022-12-09T12:05:44.919Z,100794.19
2022-12-09T12:08:43.758Z,100800.78
2022-12-09T12:11:23.853Z,100801.66
2022-12-09T12:14:13.359Z,100795.22
2022-12-09T12:17:12.577Z,100793.59
2022-12-09T12:19:49.774Z,100790.19
2022-12-09T12:22:54.861Z,100792.19
2022-12-09T12:25:26.961Z,100787.03
2022-12-09T12:28:23.464Z,100786.91
2022-12-09T12:31:07.096Z,100792.78
2022-12-09T12:34:27.225Z,100781.75
2022-12-09T12:37:15.555Z,100788.16
2022-12-09T12:39:54.632Z,100793.16
2022-12-09T12:42:41.492Z,100793.78
2022-12-09T12:45:43.154Z,100788.50
2022-12-09T12:49:17.671Z,100781.78
2022-12-09T12:52:55.009Z,100787.81
2022-12-09T12:55:46.092Z,100779.41
2022-12-09T12:58:45.351Z,100779.59
2022-12-09T13:01:39.288Z,100778.84
2022-12-09T13:04:48.629Z,100777.91
2022-12-09T13:07:37.063Z,100778.66
2022-12-09T13:10:33.517Z,100777.09
2022-12-09T13:13:17.854Z,100773.94
2022-12-09T13:15:59.577Z,100779.84
2022-12-09T13:18:38.811Z,100780.47
2022-12-09T13:21:12.332Z,100776.34
2022-12-09T13:24:31.776Z,100778.56
2022-12-09T13:27:37.036Z,100775.06
2022-12-09T13:30:52.565Z,100770.97
2022-12-09T13:33:31.945Z,100761.97
2022-12-09T13:36:12.590Z,100765.66
2022-12-09T13:38:44.550Z,100771.56
2022-12-09T13:41:51.727Z,100765.41
2022-12-09T13:44:35.186Z,100762.09
2022-12-09T13:47:28.146Z,100749.22
2022-12-09T13:50:04.993Z,100761.50
2022-12-09T13:52:49.162Z,100758.06
2022-12-09T13:55:31.461Z,100761.56
2022-12-09T13:58:53.854Z,100759.66
2022-12-09T14:01:52.108Z,100762.22
2022-12-09T14:04:44.950Z,100759.84
2022-12-09T14:07:33.287Z,100750.28
2022-12-09T14:10:07.037Z,100753.66
2022-12-09T14:12:44.089Z,100750.81
2022-12-09T14:15:25.609Z,100761.56
2022-12-09T14:18:01.794Z,100760.34
2022-12-09T14:20:38.322Z,100756.88
2022-12-09T14:23:10.137Z,100758.59
2022-12-09T14:25:56.516Z,100757.72
2022-12-09T14:28:34.388Z,100758.75
2022-12-09T14:31:08.867Z,100764.03
2022-12-09T14:33:47.940Z,100767.41
2022-12-09T14:36:26.686Z,100770.84
2022-12-09T14:39:26.786Z,100768.84
2022-12-09T14:42:13.457Z,100776.34
2022-12-09T14:44:59.848Z,100772.50
2022-12-09T14:47:40.049Z,100770.97
2022-12-09T14:50:18.445Z,100775.69
2022-12-09T14:52:58.328Z,100781.41
2022-12-09T14:55:35.173Z,100772.03
2022-12-09T14:58:07.213Z,100769.41
2022-12-09T15:00:41.731Z,100774.56
2022-12-09T15:03:33.213Z,100783.25
2022-12-09T15:06:13.086Z,100767.91
2022-12-09T15:08:45.855Z,100779.28
2022-12-09T15:11:34.424Z,100785.53
2022-12-09T15:14:27.473Z,100789.59
2022-12-09T15:16:59.870Z,100784.03
2022-12-09T15:22:30.424Z,100789.59
2022-12-09T15:25:03.238Z,100793.31
2022-12-09T15:27:35.185Z,100798.13
2022-12-09T15:30:28.075Z,100791.28
2022-12-09T15:33:01.060Z,100789.38
2022-12-09T15:35:33.872Z,100793.81
2022-12-09T15:38:08.838Z,100791.13
2022-12-09T15:41:02.255Z,100788.41
2022-12-09T15:43:36.545Z,100789.97
2022-12-09T15:46:09.556Z,100791.69
2022-12-09T15:48:48.633Z,100798.63
2022-12-09T15:51:23.445Z,100808.81
2022-12-09T15:54:14.881Z,100813.13
2022-12-09T15:56:57.978Z,100801.81
2022-12-09T15:59:56.154Z,100799.94
2022-12-09T16:02:31.452Z,100806.53
2022-12-09T16:05:06.998Z,100799.09
2022-12-09T16:07:57.647Z,100802.94
2022-12-09T16:10:29.825Z,100797.69
2022-12-09T16:13:15.579Z,100786.75
2022-12-09T16:15:54.675Z,100789.69
2022-12-09T16:18:46.413Z,100797.63
2022-12-09T16:21:27.244Z,100798.44
2022-12-09T16:24:11.938Z,100811.06
2022-12-09T16:26:49.779Z,100806.34
2022-12-09T16:29:33.662Z,100801.78
2022-12-09T16:32:40.019Z,100800.84
2022-12-09T16:35:11.827Z,100801.63
2022-12-09T16:38:09.421Z,100804.25
2022-12-09T16:40:44.368Z,100796.81
2022-12-09T16:43:16.343Z,100800.50
2022-12-09T16:46:01.184Z,100785.22
2022-12-09T16:48:33.212Z,100793.81
2022-12-09T16:51:14.938Z,100785.53
2022-12-09T16:53:50.436Z,100789.16
2022-12-09T16:56:26.821Z,100799.78
2022-12-09T16:58:59.844Z,100798.81
2022-12-09T17:01:41.522Z,100796.22
2022-12-09T17:04:24.977Z,100795.53
2022-12-09T17:06:57.459Z,100809.16
2022-12-09T17:09:29.471Z,100804.84
2022-12-09T17:12:01.588Z,100812.63
2022-12-09T17:14:33.595Z,100815.50
2022-12-09T17:17:05.749Z,100811.31
2022-12-09T17:19:37.711Z,100811.34
2022-12-09T17:22:10.355Z,100821.53
2022-12-09T17:24:42.389Z,100819.81
2022-12-09T17:27:14.344Z,100829.97
2022-12-09T17:29:46.306Z,100826.41
2022-12-09T17:32:18.394Z,100826.28
2022-12-09T17:34:50.577Z,100824.59
2022-12-09T17:37:22.587Z,100832.31
2022-12-09T17:40:01.611Z,100833.78
2022-12-09T17:42:35.334Z,100834.47
2022-12-09T17:45:08.333Z,100842.34
2022-12-09T17:47:40.620Z,100842.34
2022-12-09T17:50:12.587Z,100846.69
2022-12-09T17:52:45.045Z,100849.78
2022-12-09T17:55:17.228Z,100848.13
2022-12-09T17:57:54.037Z,100851.66
2022-12-09T18:00:26.261Z,100856.91
2022-12-09T18:02:58.295Z,100860.31
2022-12-09T18:05:30.260Z,100861.22
2022-12-09T18:08:03.258Z,100856.94
2022-12-09T18:10:35.270Z,100854.41
2022-12-09T18:13:07.241Z,100858.66
2022-12-09T18:15:39.244Z,100853.41
2022-12-09T18:18:11.193Z,100857.53
2022-12-09T18:20:43.159Z,100854.16
2022-12-09T18:23:15.187Z,100860.41
2022-12-09T18:25:47.213Z,100859.53
2022-12-09T18:28:19.148Z,100867.19
2022-12-09T18:30:51.148Z,100867.75
2022-12-09T18:33:24.092Z,100868.53
2022-12-09T18:35:55.985Z,100868.63
2022-12-09T18:38:27.907Z,100872.09
2022-12-09T18:41:02.465Z,100873.97
2022-12-09T18:43:38.514Z,100865.81
2022-12-09T18:46:14.676Z,100865.88
2022-12-09T18:48:46.750Z,100878.81
2022-12-09T18:51:21.819Z,100877.78
2022-12-09T18:53:54.234Z,100883.56
2022-12-09T18:56:27.273Z,100879.44
2022-12-09T18:59:08.565Z,100879.97
2022-12-09T19:01:44.737Z,100878.06
2022-12-09T19:04:24.499Z,100884.56
2022-12-09T19:07:00.102Z,100872.78
2022-12-09T19:09:34.998Z,100885.16
2022-12-09T19:12:44.831Z,100876.47
2022-12-09T19:14:59.739Z,100879.69
2022-12-09T19:17:32.713Z,100880.22
2022-12-09T19:20:05.487Z,100883.91
2022-12-09T19:22:37.603Z,100875.44
2022-12-09T19:25:09.648Z,100875.66
2022-12-09T19:27:41.575Z,100868.50
2022-12-09T19:30:14.417Z,100876.31
2022-12-09T19:32:53.843Z,100884.00
2022-12-09T19:35:25.985Z,100886.09
2022-12-09T19:38:01.230Z,100891.44
2022-12-09T19:40:33.707Z,100890.47
2022-12-09T19:43:05.690Z,100886.81
2022-12-09T19:45:37.608Z,100884.28
2022-12-09T19:48:10.245Z,100891.53
2022-12-09T19:50:42.191Z,100896.06
2022-12-09T19:53:14.141Z,100893.63
2022-12-09T19:55:46.935Z,100888.69
2022-12-09T19:58:18.982Z,100897.16
2022-12-09T20:00:50.945Z,100901.34
2022-12-09T20:03:23.480Z,100902.31
2022-12-09T20:05:56.136Z,100909.34
2022-12-09T20:08:28.168Z,100908.03
2022-12-09T20:11:00.656Z,100904.75
2022-12-09T20:13:33.280Z,100904.66
2022-12-09T20:16:07.636Z,100908.03
2022-12-09T20:18:39.961Z,100905.63
2022-12-09T20:21:13.594Z,100904.25
2022-12-09T20:23:47.391Z,100916.44
2022-12-09T20:26:26.489Z,100920.00
2022-12-09T20:29:06.047Z,100908.81
2022-12-09T20:31:39.530Z,100915.91
2022-12-09T20:34:18.910Z,100911.72
2022-12-09T20:36:50.875Z,100911.66
2022-12-09T20:39:23.283Z,100913.38
2022-12-09T20:41:55.249Z,100912.50
2022-12-09T20:44:27.248Z,100911.56
2022-12-09T20:46:59.280Z,100905.63
2022-12-09T20:49:31.317Z,100910.94
2022-12-09T20:52:03.397Z,100914.38
2022-12-09T20:54:35.429Z,100912.72
2022-12-09T20:57:07.447Z,100915.22
2022-12-09T20:59:39.369Z,100912.69
2022-12-09T21:02:15.480Z,100912.78
2022-12-09T21:04:47.451Z,100915.31
2022-12-09T21:07:19.425Z,100913.66
2022-12-09T21:09:51.380Z,100916.97
2022-12-09T21:12:23.498Z,100914.63
2022-12-09T21:14:55.624Z,100921.44
2022-12-09T21:17:27.702Z,100918.06
2022-12-09T21:19:59.725Z,100918.94
2022-12-09T21:22:33.496Z,100921.63
2022-12-09T21:25:06.334Z,100922.59
2022-12-09T21:27:39.866Z,100923.09
2022-12-09T21:30:12.704Z,100926.41
2022-12-09T21:32:45.705Z,100925.38
2022-12-09T21:35:17.719Z,100925.53
2022-12-09T21:37:55.836Z,100928.28
2022-12-09T21:40:28.522Z,100929.41
2022-12-09T21:43:00.448Z,100932.81
2022-12-09T21:45:33.049Z,100927.75
2022-12-09T21:48:05.265Z,100925.25
2022-12-09T21:50:37.207Z,100931.34
2022-12-09T21:53:09.159Z,100930.53
2022-12-09T21:55:41.202Z,100928.72
2022-12-09T21:58:13.260Z,100937.31
2022-12-09T22:00:45.505Z,100939.63
2022-12-09T22:03:17.564Z,100935.28
2022-12-09T22:05:52.617Z,100938.00
2022-12-09T22:08:28.963Z,100936.91
2022-12-09T22:11:01.323Z,100937.13
2022-12-09T22:13:38.998Z,100937.97
2022-12-09T22:16:21.439Z,100936.41
2022-12-09T22:18:56.468Z,100935.69
2022-12-09T22:21:31.379Z,100939.13
2022-12-09T22:24:06.878Z,100934.03
2022-12-09T22:26:40.096Z,100932.25
2022-12-09T22:29:15.641Z,100937.44
2022-12-09T22:31:47.944Z,100941.59
2022-12-09T22:34:21.070Z,100942.53
2022-12-09T22:36:54.326Z,100944.19
2022-12-09T22:39:26.513Z,100946.03
2022-12-09T22:41:58.448Z,100939.81
2022-12-09T22:44:30.704Z,100945.94
2022-12-09T22:47:02.693Z,100939.81
2022-12-09T22:49:35.690Z,100943.06
2022-12-09T22:52:07.625Z,100945.47
2022-12-09T22:54:39.778Z,100950.66
2022-12-09T22:57:11.708Z,100946.28
2022-12-09T22:59:43.836Z,100950.72
2022-12-09T23:02:15.860Z,100947.41
2022-12-09T23:04:47.951Z,100948.28
2022-12-09T23:07:19.983Z,100948.22
2022-12-09T23:09:51.941Z,100952.56
2022-12-09T23:12:23.907Z,100954.22
2022-12-09T23:14:55.897Z,100955.00
2022-12-09T23:17:27.840Z,100945.41
2022-12-09T23:19:59.885Z,100940.03
2022-12-09T23:22:31.916Z,100944.44
2022-12-09T23:25:04.500Z,100949.56
2022-12-09T23:27:36.658Z,100958.06
2022-12-09T23:30:09.961Z,100940.63
2022-12-09T23:32:42.209Z,100949.28
2022-12-09T23:35:14.184Z,100955.41
2022-12-09T23:37:46.162Z,100949.19
2022-12-09T23:40:18.255Z,100947.25
2022-12-09T23:42:53.549Z,100947.38
2022-12-09T23:45:25.521Z,100945.72
2022-12-09T23:47:57.440Z,100952.69
2022-12-09T23:50:29.469Z,100954.56
2022-12-09T23:53:01.414Z,100952.88
2022-12-09T23:55:33.401Z,100956.97
2022-12-09T23:58:05.344Z,100948.25
